Robijn — PBEJ — position and weather

sailwx.info

Track history (hours):
 
Tides and Currents Weather Stations Pressure Air Temp Water Temp Dewpoint Dewpoint Depression Visibility Wind Speed Wind Dir Waves Ship Positions

Robijn

Last reported at 2015-Jan-30 05:33 UTC. Time now 2015-Jan-30 06:23 UTC.
Position N 53°39' E 005°27'.

Length 90 m; draft 5.1 m.

Type: Cargo ship. MMSI: 245909000.

Date/timePositionNaut miles runAvg speedWind from/ knotsBaromVisibWave heightAir tempDewpointWater temp
2015-Jan-30 05:33N 53°39' E 005°27'1010.0
2015-Jan-30 04:33N 53°41' E 005°44'10 9.5
2015-Jan-30 03:32N 53°44' E 005°59'4210.0
2015-Jan-29 23:18N 53°55' E 007°08'1010.8
2015-Jan-29 22:20N 53°58' E 007°26'810.3
2015-Jan-29 21:33N 54°01' E 007°38'1010.2
2015-Jan-29 20:33N 54°02' E 007°56'1110.6
2015-Jan-29 19:33N 54°01' E 008°14'1110.6
2015-Jan-29 18:33N 53°58' E 008°31'9 8.8
2015-Jan-29 17:33N 53°53' E 008°43'9 8.9
2015-Jan-29 16:33N 53°51' E 008°58'7 7.1
2015-Jan-29 15:33N 53°54' E 009°09'5 5.4
2015-Jan-29 14:33N 53°58' E 009°15'8 8.5
2015-Jan-29 13:33N 54°06' E 009°20'6 5.7
2015-Jan-29 12:33N 54°10' E 009°26'8 7.5
2015-Jan-29 11:31N 54°15' E 009°37'6 6.5
2015-Jan-29 10:32N 54°20' E 009°43'7 7.0
2015-Jan-29 09:33N 54°21' E 009°55'5 5.3
2015-Jan-29 08:33N 54°22' E 010°04'3 2.8
2015-Jan-29 07:33N 54°22' E 010°09'1 0.8
2015-Jan-29 06:33N 54°22' E 010°10'1 0.8
2015-Jan-29 05:33N 54°23' E 010°11'2 1.9
2015-Jan-29 04:33N 54°24' E 010°12'10 9.8
2015-Jan-29 03:33N 54°32' E 010°24'1010.2
2015-Jan-29 02:33N 54°35' E 010°41'10 9.8
2015-Jan-29 01:32N 54°36' E 010°58'9 9.6
2015-Jan-29 00:33N 54°35' E 011°14'1010.0
2015-Jan-28 23:33N 54°32' E 011°30'9 9.0
2015-Jan-28 22:33N 54°29' E 011°45'9 8.7
2015-Jan-28 21:33N 54°27' E 011°59'8 7.9
2015-Jan-28 20:33N 54°31' E 012°11'9 9.3
2015-Jan-28 19:33N 54°36' E 012°25'10 9.9
2015-Jan-28 18:33N 54°40' E 012°40'1010.1
2015-Jan-28 17:33N 54°45' E 012°56'1010.3
2015-Jan-28 16:33N 54°49' E 013°12'1010.3
2015-Jan-28 15:33N 54°54' E 013°28'29 9.6
2015-Jan-28 12:31N 55°10' E 014°10'10 9.1
2015-Jan-28 11:28N 55°17' E 014°22'9 9.4
2015-Jan-28 10:33N 55°24' E 014°32'9 9.4
2015-Jan-28 09:33N 55°29' E 014°45'10 9.6
2015-Jan-28 08:33N 55°34' E 014°60'8710.4
2015-Jan-28 00:11N 56°31' E 016°57'2211.3
2015-Jan-27 22:16N 56°52' E 017°11'1911.1
2015-Jan-27 20:32N 57°09' E 017°25'1111.3
2015-Jan-27 19:32N 57°19' E 017°34'  
2015-Jan-24 12:28N 59°36' E 021°11'8 8.3
2015-Jan-24 11:34N 59°36' E 021°26'9 9.0
2015-Jan-24 10:33N 59°37' E 021°44'4210.0
2015-Jan-24 06:24N 59°39' E 023°06'910.6
2015-Jan-24 05:33N 59°39' E 023°24'1010.5
2015-Jan-24 04:33N 59°42' E 023°44'2110.5
2015-Jan-24 02:34N 59°46' E 024°25'1010.4
2015-Jan-24 01:33N 59°48' E 024°45'5210.1
2015-Jan-23 20:28N 60°01' E 026°25'910.3
2015-Jan-23 19:34N 60°01' E 026°44'10310.1
2015-Jan-23 09:19N 59°54' E 030°09'2 0.2
2015-Jan-22 21:18N 59°54' E 030°13'0 0.0
2015-Jan-22 20:12N 59°54' E 030°13'0 0.0
2015-Jan-21 06:12N 59°54' E 030°13'0 0.0
2015-Jan-21 03:24N 59°54' E 030°13'0 0.0
2015-Jan-21 01:24N 59°54' E 030°13'0 0.0
2015-Jan-20 17:06N 59°54' E 030°13'0 0.0
2015-Jan-20 16:33N 59°54' E 030°13'  
Track history (hours):
 
Tides and Currents Weather Stations Pressure Air Temp Water Temp Dewpoint Dewpoint Depression Visibility Wind Speed Wind Dir Waves Ship Positions

Robijn

Last reported at 2015-Jan-30 05:33 UTC. Time now 2015-Jan-30 06:23 UTC.
Position N 53°39' E 005°27'.

Length 90 m; draft 5.1 m.

Type: Cargo ship. MMSI: 245909000.

Date/timePositionNaut miles runAvg speedWind from/ knotsBaromVisibWave heightAir tempDewpointWater temp
2015-Jan-30 05:33N 53°39' E 005°27'1010.0
2015-Jan-30 04:33N 53°41' E 005°44'10 9.5
2015-Jan-30 03:32N 53°44' E 005°59'4210.0
2015-Jan-29 23:18N 53°55' E 007°08'1010.8
2015-Jan-29 22:20N 53°58' E 007°26'810.3
2015-Jan-29 21:33N 54°01' E 007°38'1010.2
2015-Jan-29 20:33N 54°02' E 007°56'1110.6
2015-Jan-29 19:33N 54°01' E 008°14'1110.6
2015-Jan-29 18:33N 53°58' E 008°31'9 8.8
2015-Jan-29 17:33N 53°53' E 008°43'9 8.9
2015-Jan-29 16:33N 53°51' E 008°58'7 7.1
2015-Jan-29 15:33N 53°54' E 009°09'5 5.4
2015-Jan-29 14:33N 53°58' E 009°15'8 8.5
2015-Jan-29 13:33N 54°06' E 009°20'6 5.7
2015-Jan-29 12:33N 54°10' E 009°26'8 7.5
2015-Jan-29 11:31N 54°15' E 009°37'6 6.5
2015-Jan-29 10:32N 54°20' E 009°43'7 7.0
2015-Jan-29 09:33N 54°21' E 009°55'5 5.3
2015-Jan-29 08:33N 54°22' E 010°04'3 2.8
2015-Jan-29 07:33N 54°22' E 010°09'1 0.8
2015-Jan-29 06:33N 54°22' E 010°10'1 0.8
2015-Jan-29 05:33N 54°23' E 010°11'2 1.9
2015-Jan-29 04:33N 54°24' E 010°12'10 9.8
2015-Jan-29 03:33N 54°32' E 010°24'1010.2
2015-Jan-29 02:33N 54°35' E 010°41'10 9.8
2015-Jan-29 01:32N 54°36' E 010°58'9 9.6
2015-Jan-29 00:33N 54°35' E 011°14'1010.0
2015-Jan-28 23:33N 54°32' E 011°30'9 9.0
2015-Jan-28 22:33N 54°29' E 011°45'9 8.7
2015-Jan-28 21:33N 54°27' E 011°59'8 7.9
2015-Jan-28 20:33N 54°31' E 012°11'9 9.3
2015-Jan-28 19:33N 54°36' E 012°25'10 9.9
2015-Jan-28 18:33N 54°40' E 012°40'1010.1
2015-Jan-28 17:33N 54°45' E 012°56'1010.3
2015-Jan-28 16:33N 54°49' E 013°12'1010.3
2015-Jan-28 15:33N 54°54' E 013°28'29 9.6
2015-Jan-28 12:31N 55°10' E 014°10'10 9.1
2015-Jan-28 11:28N 55°17' E 014°22'9 9.4
2015-Jan-28 10:33N 55°24' E 014°32'9 9.4
2015-Jan-28 09:33N 55°29' E 014°45'10 9.6
2015-Jan-28 08:33N 55°34' E 014°60'8710.4
2015-Jan-28 00:11N 56°31' E 016°57'2211.3
2015-Jan-27 22:16N 56°52' E 017°11'1911.1
2015-Jan-27 20:32N 57°09' E 017°25'1111.3
2015-Jan-27 19:32N 57°19' E 017°34'  
2015-Jan-24 12:28N 59°36' E 021°11'8 8.3
2015-Jan-24 11:34N 59°36' E 021°26'9 9.0
2015-Jan-24 10:33N 59°37' E 021°44'4210.0
2015-Jan-24 06:24N 59°39' E 023°06'910.6
2015-Jan-24 05:33N 59°39' E 023°24'1010.5
2015-Jan-24 04:33N 59°42' E 023°44'2110.5
2015-Jan-24 02:34N 59°46' E 024°25'1010.4
2015-Jan-24 01:33N 59°48' E 024°45'5210.1
2015-Jan-23 20:28N 60°01' E 026°25'910.3
2015-Jan-23 19:34N 60°01' E 026°44'10310.1
2015-Jan-23 09:19N 59°54' E 030°09'2 0.2
2015-Jan-22 21:18N 59°54' E 030°13'0 0.0
2015-Jan-22 20:12N 59°54' E 030°13'0 0.0
2015-Jan-21 06:12N 59°54' E 030°13'0 0.0
2015-Jan-21 03:24N 59°54' E 030°13'0 0.0
2015-Jan-21 01:24N 59°54' E 030°13'0 0.0
2015-Jan-20 17:06N 59°54' E 030°13'0 0.0
2015-Jan-20 16:33N 59°54' E 030°13'  

Dump ship's entire track history